createdAt,value
2022-11-25T00:00:35.572Z,90.57
2022-11-25T00:05:38.730Z,90.24
2022-11-25T00:10:42.937Z,90.15
2022-11-25T00:15:45.848Z,89.63
2022-11-25T00:20:48.790Z,89.45
2022-11-25T00:25:53.002Z,88.81
2022-11-25T00:30:55.930Z,87.82
2022-11-25T00:36:01.815Z,88.80
2022-11-25T00:41:23.444Z,88.15
2022-11-25T00:46:26.429Z,88.29
2022-11-25T00:51:29.342Z,88.38
2022-11-25T00:56:33.969Z,88.97
2022-11-25T01:01:37.845Z,88.66
2022-11-25T01:06:40.953Z,88.59
2022-11-25T01:11:45.220Z,88.31
2022-11-25T01:16:48.233Z,88.97
2022-11-25T01:21:51.340Z,89.23
2022-11-25T01:26:56.531Z,89.70
2022-11-25T01:31:59.461Z,88.99
2022-11-25T01:37:02.610Z,88.72
2022-11-25T01:42:06.921Z,88.89
2022-11-25T01:47:16.899Z,89.20
2022-11-25T01:52:25.932Z,88.98
2022-11-25T01:57:36.077Z,87.85
2022-11-25T02:02:39.272Z,87.62
2022-11-25T02:07:45.242Z,87.27
2022-11-25T02:12:50.211Z,86.39
2022-11-25T02:17:53.671Z,86.64
2022-11-25T02:23:04.268Z,86.68
2022-11-25T02:28:11.881Z,86.24
2022-11-25T02:33:15.479Z,86.32
2022-11-25T02:38:22.167Z,85.91
2022-11-25T02:43:27.289Z,85.82
2022-11-25T02:49:06.935Z,85.68
2022-11-25T02:53:57.191Z,84.93
2022-11-25T02:59:03.484Z,85.51
2022-11-25T03:04:07.283Z,85.25
2022-11-25T03:09:10.239Z,85.24
2022-11-25T03:14:16.046Z,84.05
2022-11-25T03:19:19.460Z,84.92
2022-11-25T03:24:22.355Z,83.46
2022-11-25T03:29:27.466Z,83.71
2022-11-25T03:34:30.433Z,83.67
2022-11-25T03:39:34.553Z,83.36
2022-11-25T03:44:39.143Z,83.24
2022-11-25T03:49:42.136Z,83.05
2022-11-25T03:54:46.412Z,83.16
2022-11-25T03:59:56.466Z,83.32
2022-11-25T04:04:59.619Z,82.46
2022-11-25T04:10:03.567Z,83.11
2022-11-25T04:15:11.106Z,83.24
2022-11-25T04:20:16.417Z,83.39
2022-11-25T04:25:23.981Z,83.61
2022-11-25T04:30:29.489Z,82.82
2022-11-25T04:35:32.569Z,82.20
2022-11-25T04:40:35.681Z,82.08
2022-11-25T04:46:13.052Z,81.99
2022-11-25T04:51:15.444Z,81.57
2022-11-25T04:56:20.645Z,81.96
2022-11-25T05:01:27.581Z,81.71
2022-11-25T05:06:38.553Z,82.18
2022-11-25T05:11:42.563Z,82.40
2022-11-25T05:16:47.103Z,83.64
2022-11-25T05:21:50.446Z,84.97
2022-11-25T05:26:54.519Z,84.74
2022-11-25T05:31:59.088Z,85.41
2022-11-25T05:37:02.152Z,85.51
2022-11-25T05:42:06.258Z,85.17
2022-11-25T05:47:10.673Z,85.43
2022-11-25T05:52:15.466Z,86.91
2022-11-25T05:57:26.870Z,86.28
2022-11-25T06:02:35.244Z,85.46
2022-11-25T06:07:38.296Z,85.37
2022-11-25T06:12:41.430Z,85.44
2022-11-25T06:17:46.255Z,84.87
2022-11-25T06:22:55.381Z,84.06
2022-11-25T06:28:12.966Z,85.05
2022-11-25T06:33:20.508Z,84.28
2022-11-25T06:38:24.833Z,84.85
2022-11-25T06:43:27.761Z,84.40
2022-11-25T06:48:32.180Z,85.56
2022-11-25T06:53:36.041Z,86.19
2022-11-25T06:58:40.317Z,86.32
2022-11-25T07:03:45.783Z,87.87
2022-11-25T07:08:49.596Z,87.34
2022-11-25T07:13:54.144Z,87.16
2022-11-25T07:19:00.123Z,86.94
2022-11-25T07:24:05.530Z,89.68
2022-11-25T07:29:36.425Z,88.98
2022-11-25T07:34:36.207Z,88.68
2022-11-25T07:39:39.539Z,88.94
2022-11-25T07:44:42.654Z,87.82
2022-11-25T07:50:08.938Z,88.35
2022-11-25T07:55:11.831Z,87.90
2022-11-25T08:00:16.166Z,86.58
2022-11-25T08:05:20.479Z,87.66
2022-11-25T08:10:23.437Z,86.85
2022-11-25T08:15:26.384Z,87.17
2022-11-25T08:20:31.486Z,87.58
2022-11-25T08:25:34.660Z,86.23
2022-11-25T08:30:37.722Z,85.96
2022-11-25T08:35:42.101Z,85.41
2022-11-25T08:40:46.715Z,85.50
2022-11-25T08:45:49.847Z,85.28
2022-11-25T08:50:56.126Z,85.42
2022-11-25T08:55:59.172Z,83.78
2022-11-25T09:01:02.839Z,82.29
2022-11-25T09:06:08.383Z,82.87
2022-11-25T09:11:12.078Z,82.63
2022-11-25T09:16:15.280Z,83.59
2022-11-25T09:21:19.851Z,82.99
2022-11-25T09:26:26.036Z,82.08
2022-11-25T09:31:29.370Z,81.74
2022-11-25T09:36:33.727Z,81.70
2022-11-25T09:42:23.020Z,81.65
2022-11-25T09:47:45.226Z,80.90
2022-11-25T09:53:04.009Z,79.23
2022-11-25T09:58:17.602Z,80.22
2022-11-25T10:03:30.402Z,78.77
2022-11-25T10:08:39.172Z,79.31
2022-11-25T10:13:49.266Z,79.42
2022-11-25T10:18:59.034Z,80.41
2022-11-25T10:24:04.944Z,79.41
2022-11-25T10:29:24.096Z,78.93
2022-11-25T10:34:35.174Z,76.23
2022-11-25T10:39:39.990Z,77.39
2022-11-25T10:44:43.407Z,75.32
2022-11-25T10:50:00.781Z,76.82
2022-11-25T10:55:12.985Z,74.82
2022-11-25T11:00:31.633Z,75.38
2022-11-25T11:05:34.796Z,72.08
2022-11-25T11:10:39.840Z,74.44
2022-11-25T11:15:48.039Z,71.36
2022-11-25T11:20:54.101Z,72.55
2022-11-25T11:26:04.361Z,69.55
2022-11-25T11:31:18.174Z,67.43
2022-11-25T11:36:35.618Z,67.70
2022-11-25T11:41:45.616Z,66.07
2022-11-25T11:47:02.477Z,66.91
2022-11-25T11:52:12.482Z,67.94
2022-11-25T11:57:29.129Z,66.87
2022-11-25T12:02:41.787Z,66.51
2022-11-25T12:07:53.192Z,67.44
2022-11-25T12:13:07.381Z,66.98
2022-11-25T12:18:21.854Z,67.14
2022-11-25T12:23:30.355Z,67.31
2022-11-25T12:28:41.353Z,67.23
2022-11-25T12:33:53.492Z,68.47
2022-11-25T12:39:02.902Z,67.27
2022-11-25T12:44:14.224Z,68.42
2022-11-25T12:49:22.665Z,67.94
2022-11-25T12:54:38.055Z,67.88
2022-11-25T13:00:25.416Z,68.86
2022-11-25T13:05:43.334Z,67.34
2022-11-25T13:11:09.163Z,67.84
2022-11-25T13:16:14.738Z,68.60
2022-11-25T13:21:20.016Z,67.49
2022-11-25T13:26:53.024Z,67.76
2022-11-25T13:31:59.913Z,68.44
2022-11-25T13:37:24.087Z,68.63
2022-11-25T13:42:29.091Z,69.25
2022-11-25T13:47:36.326Z,68.64
2022-11-25T13:52:42.885Z,69.23
2022-11-25T13:57:49.879Z,69.46
2022-11-25T14:02:52.872Z,69.75
2022-11-25T14:08:10.305Z,70.45
2022-11-25T14:13:42.483Z,70.96
2022-11-25T14:19:35.065Z,75.47
2022-11-25T14:24:35.320Z,72.47
2022-11-25T14:29:42.966Z,74.85
2022-11-25T14:34:49.790Z,73.44
2022-11-25T14:39:59.012Z,73.70
2022-11-25T14:45:03.403Z,73.64
2022-11-25T14:55:38.220Z,77.43
2022-11-25T15:00:53.091Z,78.62
2022-11-25T15:05:58.224Z,79.50
2022-11-25T15:11:03.470Z,79.12
2022-11-25T15:16:13.520Z,79.02
2022-11-25T15:21:18.600Z,78.89
2022-11-25T15:26:23.618Z,78.64
2022-11-25T15:31:31.200Z,79.46
2022-11-25T15:36:34.577Z,79.39
2022-11-25T15:41:38.093Z,79.97
2022-11-25T15:46:42.668Z,80.79
2022-11-25T15:51:52.483Z,81.11
2022-11-25T15:56:59.112Z,81.63
2022-11-25T16:02:03.556Z,81.69
2022-11-25T16:07:23.404Z,82.55
2022-11-25T16:12:26.364Z,82.41
2022-11-25T16:17:31.667Z,83.33
2022-11-25T16:22:34.616Z,88.37
2022-11-25T16:27:38.626Z,86.04
2022-11-25T16:32:42.902Z,85.37
2022-11-25T16:37:49.101Z,84.65
2022-11-25T16:42:53.389Z,85.08
2022-11-25T16:47:57.669Z,85.06
2022-11-25T16:53:01.488Z,85.37
2022-11-25T16:58:10.137Z,85.05
2022-11-25T17:03:14.554Z,85.79
2022-11-25T17:08:17.568Z,86.66
2022-11-25T17:13:23.252Z,85.80
2022-11-25T17:18:27.809Z,84.50
2022-11-25T17:23:30.703Z,84.44
2022-11-25T17:28:33.740Z,84.83
2022-11-25T17:33:39.866Z,85.62
2022-11-25T17:38:42.782Z,85.92
2022-11-25T17:43:47.499Z,85.98
2022-11-25T17:48:51.933Z,86.55
2022-11-25T17:53:54.851Z,86.56
2022-11-25T17:59:07.373Z,86.28
2022-11-25T18:04:23.101Z,85.73
2022-11-25T18:09:26.032Z,86.26
2022-11-25T18:14:33.211Z,86.07
2022-11-25T18:19:37.546Z,87.77
2022-11-25T18:24:41.135Z,87.55
2022-11-25T18:29:44.423Z,88.16
2022-11-25T18:34:48.661Z,87.95
2022-11-25T18:39:51.622Z,88.13
2022-11-25T18:44:56.124Z,90.27
2022-11-25T18:50:00.497Z,88.74
2022-11-25T18:55:03.424Z,88.11
2022-11-25T19:00:31.078Z,87.87
2022-11-25T19:05:33.579Z,88.29
2022-11-25T19:10:38.654Z,87.74
2022-11-25T19:15:43.739Z,87.64
2022-11-25T19:20:48.030Z,87.29
2022-11-25T19:25:51.073Z,87.28
2022-11-25T19:30:58.958Z,88.62
2022-11-25T19:36:03.416Z,87.72
2022-11-25T19:41:06.538Z,87.75
2022-11-25T19:46:29.159Z,88.36
2022-11-25T19:51:35.846Z,87.22
2022-11-25T19:56:40.124Z,86.67
2022-11-25T20:01:45.441Z,87.16
2022-11-25T20:06:50.493Z,87.93
2022-11-25T20:11:58.575Z,87.38
2022-11-25T20:17:01.603Z,87.56
2022-11-25T20:22:06.041Z,87.06
2022-11-25T20:27:11.233Z,86.75
2022-11-25T20:32:21.048Z,87.39
2022-11-25T20:37:26.241Z,87.69
2022-11-25T20:42:29.136Z,87.64
2022-11-25T20:47:32.274Z,87.95
2022-11-25T20:52:38.766Z,87.36
2022-11-25T20:57:41.754Z,87.95
2022-11-25T21:02:44.709Z,87.22
2022-11-25T21:07:50.856Z,87.01
2022-11-25T21:12:54.862Z,87.49
2022-11-25T21:17:58.526Z,88.44
2022-11-25T21:23:06.573Z,87.89
2022-11-25T21:28:16.335Z,88.00
2022-11-25T21:33:19.375Z,87.32
2022-11-25T21:38:26.164Z,89.30
2022-11-25T21:43:33.091Z,88.77
2022-11-25T21:48:36.647Z,89.61
2022-11-25T21:53:41.598Z,89.38
2022-11-25T21:58:44.998Z,90.32
2022-11-25T22:03:47.931Z,90.12
2022-11-25T22:08:52.496Z,89.52
2022-11-25T22:13:55.475Z,88.70
2022-11-25T22:18:59.133Z,90.94
2022-11-25T22:24:06.784Z,91.73
2022-11-25T22:29:14.002Z,90.17
2022-11-25T22:34:19.385Z,90.25
2022-11-25T22:39:25.529Z,89.97
2022-11-25T22:44:33.672Z,91.07
2022-11-25T22:49:41.455Z,91.96
2022-11-25T22:54:45.717Z,93.54
2022-11-25T22:59:48.666Z,92.76
2022-11-25T23:04:53.639Z,92.63
2022-11-25T23:09:57.957Z,92.39
2022-11-25T23:15:00.885Z,92.58
2022-11-25T23:20:03.906Z,90.96
2022-11-25T23:25:14.806Z,91.39
2022-11-25T23:30:19.527Z,92.16
2022-11-25T23:35:28.692Z,91.95
2022-11-25T23:40:33.414Z,90.91
2022-11-25T23:45:36.363Z,92.32
2022-11-25T23:50:39.256Z,92.92
2022-11-25T23:55:43.691Z,92.97
